Sheffield, Illinois
Current Conditions -  °F | °C
As of 10:15 PM on Sunday 21 Dec 2014 (Local Time) from KSQI Reporting Station
Overcast Overcast  
Wind Chill: 29°   Ceiling: 4500
Heat Index: 36°   Visibility: 10mi
Dew Point: 28°   Wind: 9mph
Humidity: 75%   Direction: 150°SSE
Pressure: 29.96"   Gusts: 16mph
Location:  41.36°N, 89.74°W
Report Text: KSQI 220415Z 15008G14KT 10SM OVC045 02/M02 A2996 RMK AO1
Loading
Personal Weather Stations






























Interactive Weather Map New forecast layout! Learn more

10-Day Weather Forecast

Advertisements
Track Severe Weather on mobile